Time;durP1;ratioP1;P1;durP2;ratioP2;P2;SDS_P1;SDS_P2;PMS_P1;PMS_P2;Temp;Humidity;BMP_temperature;BMP_pressure;BME280_temperature;BME280_humidity;BME280_pressure;Samples;Min_cycle;Max_cycle;Signal;HPM_P1;HPM_P2
2023/04/22 00:01:50;;;;;;;64.47;10.03;;;;;;;;;;5074769;28;20958;-69
2023/04/22 00:04:19;;;;;;;65.40;10.30;;;;;;;;;;5074716;28;20435;-70
2023/04/22 00:06:48;;;;;;;66.17;9.80;;;;;;;;;;5074184;28;20490;-68
2023/04/22 00:09:15;;;;;;;63.70;9.70;;;;;;;;;;5073921;28;20988;-69
2023/04/22 00:11:42;;;;;;;64.50;10.30;;;;;;;;;;5073024;28;20494;-69
2023/04/22 00:14:09;;;;;;;62.80;9.33;;;;;;;;;;5074220;28;20455;-69
2023/04/22 00:16:37;;;;;;;64.57;9.73;;;;;;;;;;5074067;28;20820;-69
2023/04/22 00:19:05;;;;;;;64.17;9.60;;;;;;;;;;5073780;28;20467;-69
2023/04/22 00:21:32;;;;;;;66.67;8.60;;;;;;;;;;5073925;28;20447;-69
2023/04/22 00:24:00;;;;;;;64.30;9.10;;;;;;;;;;5073928;28;20466;-69
2023/04/22 00:26:28;;;;;;;65.70;9.77;;;;;;;;;;5074043;28;20887;-69
2023/04/22 00:28:55;;;;;;;65.87;10.30;;;;;;;;;;5070659;28;20472;-69
2023/04/22 00:31:22;;;;;;;65.60;10.50;;;;;;;;;;5073693;28;21009;-69
2023/04/22 00:33:49;;;;;;;67.00;10.33;;;;;;;;;;5073390;28;20447;-69
2023/04/22 00:36:16;;;;;;;65.57;10.57;;;;;;;;;;5073746;28;20512;-69
2023/04/22 00:38:48;;;;;;;63.90;10.60;;;;;;;;;;5073154;28;20463;-68
2023/04/22 00:41:17;;;;;;;65.87;9.90;;;;;;;;;;5073705;28;20439;-68
2023/04/22 00:43:44;;;;;;;64.57;9.47;;;;;;;;;;5073578;28;20443;-68
2023/04/22 00:46:11;;;;;;;65.50;10.20;;;;;;;;;;5073455;28;20488;-69
2023/04/22 00:48:38;;;;;;;73.07;10.27;;;;;;;;;;5073151;28;20472;-69
2023/04/22 00:51:06;;;;;;;63.90;9.17;;;;;;;;;;5073259;28;20479;-69
2023/04/22 00:53:33;;;;;;;64.90;9.83;;;;;;;;;;5073738;28;20446;-69
2023/04/22 00:56:00;;;;;;;66.57;10.30;;;;;;;;;;5073454;28;20448;-69
2023/04/22 00:58:29;;;;;;;65.60;9.90;;;;;;;;;;5073033;28;20454;-68
2023/04/22 01:00:57;;;;;;;66.07;10.30;;;;;;;;;;5070673;28;20444;-69
2023/04/22 01:03:25;;;;;;;65.83;9.90;;;;;;;;;;5073137;28;20451;-69
2023/04/22 01:05:52;;;;;;;65.60;9.53;;;;;;;;;;5073319;28;20447;-70
2023/04/22 01:08:20;;;;;;;65.50;10.40;;;;;;;;;;5072857;28;20451;-68
2023/04/22 01:10:47;;;;;;;68.57;11.83;;;;;;;;;;5072750;28;20905;-69
2023/04/22 01:13:14;;;;;;;68.67;12.60;;;;;;;;;;5072783;28;20447;-69
2023/04/22 01:15:43;;;;;;;67.90;10.83;;;;;;;;;;5072860;28;20738;-69
2023/04/22 01:18:10;;;;;;;64.23;10.30;;;;;;;;;;5072806;28;20443;-67
2023/04/22 01:20:37;;;;;;;64.53;9.40;;;;;;;;;;5072520;28;20470;-68
2023/04/22 01:23:05;;;;;;;64.97;9.37;;;;;;;;;;5072488;28;20447;-69
2023/04/22 01:25:34;;;;;;;65.03;10.37;;;;;;;;;;5072792;28;20447;-67
2023/04/22 01:28:01;;;;;;;64.50;11.70;;;;;;;;;;5070255;28;20543;-69
2023/04/22 01:30:28;;;;;;;67.30;10.17;;;;;;;;;;5071132;28;20621;-68
2023/04/22 01:32:55;;;;;;;65.10;10.07;;;;;;;;;;5072025;28;20439;-69
2023/04/22 01:35:22;;;;;;;65.07;9.87;;;;;;;;;;5072258;28;20470;-68
2023/04/22 01:37:49;;;;;;;64.10;9.77;;;;;;;;;;5072561;28;20443;-69
2023/04/22 01:40:18;;;;;;;64.60;9.60;;;;;;;;;;5072099;28;20991;-68
2023/04/22 01:42:47;;;;;;;66.47;9.70;;;;;;;;;;5072521;28;20449;-68
2023/04/22 01:45:16;;;;;;;68.90;10.20;;;;;;;;;;5072394;28;20450;-68
2023/04/22 01:47:43;;;;;;;62.97;10.07;;;;;;;;;;5072316;28;20459;-68
2023/04/22 01:50:11;;;;;;;67.23;10.40;;;;;;;;;;5071660;28;20491;-68
2023/04/22 01:52:38;;;;;;;66.27;9.97;;;;;;;;;;5072584;28;20459;-69
2023/04/22 01:55:06;;;;;;;67.77;10.20;;;;;;;;;;5071972;28;20447;-68
2023/04/22 01:57:33;;;;;;;71.63;9.67;;;;;;;;;;5072011;28;20462;-69
2023/04/22 02:00:01;;;;;;;68.23;9.20;;;;;;;;;;5071645;28;20463;-69
2023/04/22 02:02:28;;;;;;;64.77;9.83;;;;;;;;;;5069076;28;20995;-68
2023/04/22 02:04:55;;;;;;;72.10;11.10;;;;;;;;;;5072372;28;20798;-67
2023/04/22 02:07:23;;;;;;;66.20;10.30;;;;;;;;;;5072133;28;20451;-68
2023/04/22 02:09:50;;;;;;;64.87;9.70;;;;;;;;;;5071817;28;20604;-69
2023/04/22 02:12:17;;;;;;;63.30;9.90;;;;;;;;;;5071888;28;20483;-68
2023/04/22 02:14:44;;;;;;;64.77;10.20;;;;;;;;;;5071652;28;20454;-68
2023/04/22 02:17:13;;;;;;;63.80;10.37;;;;;;;;;;5071543;28;20490;-69
2023/04/22 02:19:40;;;;;;;65.47;10.90;;;;;;;;;;5071529;28;20464;-68
2023/04/22 02:22:07;;;;;;;65.07;10.60;;;;;;;;;;5071873;28;20450;-68
2023/04/22 02:24:34;;;;;;;69.90;10.90;;;;;;;;;;5071562;28;20460;-68
2023/04/22 02:27:01;;;;;;;65.43;9.13;;;;;;;;;;5071937;28;20451;-68
2023/04/22 02:29:30;;;;;;;64.50;10.13;;;;;;;;;;5071206;28;20867;-68
2023/04/22 02:31:57;;;;;;;65.93;10.97;;;;;;;;;;5071879;28;21007;-68
2023/04/22 02:34:26;;;;;;;64.83;10.10;;;;;;;;;;5071387;28;20443;-69
2023/04/22 02:36:53;;;;;;;66.10;9.83;;;;;;;;;;5069318;28;20816;-69
2023/04/22 02:39:20;;;;;;;67.57;10.93;;;;;;;;;;5070967;28;20980;-68
2023/04/22 02:41:47;;;;;;;66.00;9.90;;;;;;;;;;5071542;28;20449;-69
2023/04/22 02:44:14;;;;;;;64.63;9.93;;;;;;;;;;5071340;28;20947;-68
2023/04/22 02:46:41;;;;;;;64.00;10.00;;;;;;;;;;5071654;28;20443;-68
2023/04/22 02:49:09;;;;;;;62.80;8.80;;;;;;;;;;5071239;28;20471;-68
2023/04/22 02:51:38;;;;;;;65.40;9.60;;;;;;;;;;5071460;28;20478;-68
2023/04/22 02:54:05;;;;;;;64.37;9.93;;;;;;;;;;5071628;28;20477;-68
2023/04/22 02:56:32;;;;;;;63.87;9.10;;;;;;;;;;5071200;28;20451;-68
2023/04/22 02:59:00;;;;;;;64.90;9.30;;;;;;;;;;5070937;28;20475;-69
2023/04/22 03:01:27;;;;;;;63.97;9.40;;;;;;;;;;5071540;28;20435;-67
2023/04/22 03:03:54;;;;;;;65.20;10.30;;;;;;;;;;5071451;28;20819;-69
2023/04/22 03:06:21;;;;;;;64.40;9.47;;;;;;;;;;5071185;28;20450;-68
2023/04/22 03:08:49;;;;;;;65.47;10.67;;;;;;;;;;5068763;28;20467;-68
2023/04/22 03:11:16;;;;;;;64.30;9.70;;;;;;;;;;5070997;28;20480;-68
2023/04/22 03:13:43;;;;;;;65.50;10.07;;;;;;;;;;5071229;28;20936;-68
2023/04/22 03:16:10;;;;;;;63.00;8.93;;;;;;;;;;5071219;28;20443;-68
2023/04/22 03:18:38;;;;;;;64.57;9.80;;;;;;;;;;5070975;28;20460;-69
2023/04/22 03:21:06;;;;;;;65.83;10.37;;;;;;;;;;5071201;28;20454;-69
2023/04/22 03:23:33;;;;;;;64.60;9.50;;;;;;;;;;5071316;28;20459;-68
2023/04/22 03:26:01;;;;;;;64.07;9.20;;;;;;;;;;5071122;28;20470;-69
2023/04/22 03:28:29;;;;;;;65.50;8.73;;;;;;;;;;5071160;28;20534;-69
2023/04/22 03:30:56;;;;;;;65.60;8.83;;;;;;;;;;5070749;28;20494;-68
2023/04/22 03:33:23;;;;;;;62.90;9.07;;;;;;;;;;5071253;28;20446;-68
2023/04/22 03:35:50;;;;;;;64.50;9.47;;;;;;;;;;5071035;28;20454;-68
2023/04/22 03:38:17;;;;;;;67.27;9.50;;;;;;;;;;5070807;28;20443;-68
2023/04/22 03:40:44;;;;;;;63.47;9.23;;;;;;;;;;5068708;28;20454;-68
2023/04/22 03:43:12;;;;;;;63.50;8.73;;;;;;;;;;5071144;28;20819;-69
2023/04/22 03:45:40;;;;;;;63.67;9.50;;;;;;;;;;5073223;28;20453;-68
2023/04/22 03:48:07;;;;;;;66.87;9.93;;;;;;;;;;5074523;28;20449;-68
2023/04/22 03:50:34;;;;;;;64.77;9.33;;;;;;;;;;5074069;28;20487;-68
2023/04/22 03:53:01;;;;;;;63.07;9.00;;;;;;;;;;5074361;28;20447;-68
2023/04/22 03:55:28;;;;;;;64.27;9.50;;;;;;;;;;5074470;28;20457;-67
2023/04/22 03:57:55;;;;;;;66.60;9.30;;;;;;;;;;5074483;28;20443;-68
2023/04/22 04:00:24;;;;;;;63.87;9.43;;;;;;;;;;5073855;28;20471;-68
2023/04/22 04:02:51;;;;;;;63.20;9.23;;;;;;;;;;5074483;28;20444;-68
2023/04/22 04:05:18;;;;;;;63.40;8.60;;;;;;;;;;5074209;28;20956;-68
2023/04/22 04:07:45;;;;;;;66.47;10.47;;;;;;;;;;5074112;28;20466;-68
2023/04/22 04:10:12;;;;;;;63.57;9.53;;;;;;;;;;5072084;28;20479;-68
2023/04/22 04:12:40;;;;;;;65.13;9.47;;;;;;;;;;5074140;28;21015;-69
2023/04/22 04:15:07;;;;;;;67.20;10.13;;;;;;;;;;5074171;28;20459;-68
2023/04/22 04:17:36;;;;;;;63.00;9.30;;;;;;;;;;5073870;28;20455;-68
2023/04/22 04:20:03;;;;;;;64.10;9.40;;;;;;;;;;5073271;28;20468;-67
2023/04/22 04:22:30;;;;;;;63.77;9.70;;;;;;;;;;5073957;28;20451;-68
2023/04/22 04:24:57;;;;;;;63.23;9.63;;;;;;;;;;5073857;28;20455;-68
2023/04/22 04:27:24;;;;;;;63.40;9.37;;;;;;;;;;5073913;28;20454;-68
2023/04/22 04:29:51;;;;;;;63.13;9.53;;;;;;;;;;5073527;28;20493;-68
2023/04/22 04:32:18;;;;;;;63.67;10.00;;;;;;;;;;5073622;28;20479;-68
2023/04/22 04:34:47;;;;;;;64.10;9.27;;;;;;;;;;5073689;28;20451;-68
2023/04/22 04:37:15;;;;;;;64.60;10.20;;;;;;;;;;5073738;28;20447;-68
2023/04/22 04:39:43;;;;;;;64.47;9.90;;;;;;;;;;5073251;28;20511;-69
2023/04/22 04:42:11;;;;;;;65.00;9.20;;;;;;;;;;5071020;28;20455;-69
2023/04/22 04:44:38;;;;;;;65.10;9.60;;;;;;;;;;5073608;28;20479;-69
2023/04/22 04:47:05;;;;;;;64.50;10.27;;;;;;;;;;5073296;28;20455;-69
2023/04/22 04:49:38;;;;;;;63.07;9.67;;;;;;;;;;5073121;28;20849;-68
2023/04/22 04:52:09;;;;;;;65.10;10.70;;;;;;;;;;5073535;28;20487;-68
2023/04/22 04:54:36;;;;;;;63.40;9.70;;;;;;;;;;5073478;28;20481;-68
2023/04/22 04:57:03;;;;;;;62.57;9.83;;;;;;;;;;5072974;28;20451;-69
2023/04/22 04:59:30;;;;;;;64.17;9.90;;;;;;;;;;5072480;28;20979;-68
2023/04/22 05:01:57;;;;;;;63.37;8.60;;;;;;;;;;5073474;28;20447;-69
2023/04/22 05:04:24;;;;;;;64.70;9.10;;;;;;;;;;5073346;28;20444;-68
2023/04/22 05:06:51;;;;;;;67.80;9.50;;;;;;;;;;5073237;28;20836;-68
2023/04/22 05:09:20;;;;;;;66.47;10.60;;;;;;;;;;5072585;28;20463;-68
2023/04/22 05:11:47;;;;;;;65.00;11.30;;;;;;;;;;5073002;28;20491;-68
2023/04/22 05:14:14;;;;;;;71.13;9.73;;;;;;;;;;5070440;28;20459;-69
2023/04/22 05:16:41;;;;;;;65.10;9.70;;;;;;;;;;5073009;28;20452;-68
2023/04/22 05:19:08;;;;;;;65.70;10.60;;;;;;;;;;5072581;28;20470;-69
2023/04/22 05:21:35;;;;;;;62.53;9.90;;;;;;;;;;5072429;28;20442;-69
2023/04/22 05:24:02;;;;;;;67.83;10.30;;;;;;;;;;5072202;28;20470;-68
2023/04/22 05:26:31;;;;;;;67.63;10.70;;;;;;;;;;5072482;28;20448;-69
2023/04/22 05:28:58;;;;;;;63.80;10.20;;;;;;;;;;5072269;28;20478;-68
2023/04/22 05:31:25;;;;;;;67.33;11.53;;;;;;;;;;5072595;28;20487;-67
2023/04/22 05:33:52;;;;;;;65.47;11.50;;;;;;;;;;5072682;28;20455;-69
2023/04/22 05:36:20;;;;;;;64.27;9.40;;;;;;;;;;5072579;28;20830;-69
2023/04/22 05:38:47;;;;;;;66.50;10.70;;;;;;;;;;5072165;28;20467;-68
2023/04/22 05:41:14;;;;;;;65.30;10.40;;;;;;;;;;5072138;28;20458;-67
2023/04/22 05:43:43;;;;;;;65.83;9.70;;;;;;;;;;5072599;28;20537;-68
2023/04/22 05:46:10;;;;;;;65.93;10.67;;;;;;;;;;5069999;28;20447;-69
2023/04/22 05:48:37;;;;;;;67.57;10.20;;;;;;;;;;5071904;28;20468;-68
2023/04/22 05:51:04;;;;;;;65.30;9.70;;;;;;;;;;5072251;28;20511;-68
2023/04/22 05:53:31;;;;;;;66.13;10.60;;;;;;;;;;5072154;28;20487;-68
2023/04/22 05:55:58;;;;;;;66.90;10.77;;;;;;;;;;5072010;28;20499;-68
2023/04/22 05:58:25;;;;;;;66.30;10.83;;;;;;;;;;5071843;28;20948;-68
2023/04/22 06:00:54;;;;;;;63.40;9.60;;;;;;;;;;5071807;28;20451;-68
2023/04/22 06:03:21;;;;;;;65.17;10.00;;;;;;;;;;5071991;28;20458;-68
2023/04/22 06:05:48;;;;;;;64.93;9.40;;;;;;;;;;5071971;28;20443;-68
2023/04/22 06:08:16;;;;;;;66.50;8.93;;;;;;;;;;5070810;28;20824;-68
2023/04/22 06:10:43;;;;;;;64.00;9.60;;;;;;;;;;5071947;28;20469;-68
2023/04/22 06:13:10;;;;;;;69.90;10.87;;;;;;;;;;5072063;28;20483;-67
2023/04/22 06:15:37;;;;;;;63.63;9.53;;;;;;;;;;5071887;28;20533;-68
2023/04/22 06:18:06;;;;;;;64.50;9.47;;;;;;;;;;5071718;28;20443;-68
2023/04/22 06:20:34;;;;;;;63.20;9.47;;;;;;;;;;5071265;28;20467;-68
2023/04/22 06:23:04;;;;;;;65.47;9.17;;;;;;;;;;5071491;28;20531;-69
2023/04/22 06:25:31;;;;;;;62.37;8.43;;;;;;;;;;5071952;28;20497;-69
2023/04/22 06:27:59;;;;;;;63.70;9.40;;;;;;;;;;5071812;28;20455;-69
2023/04/22 06:30:26;;;;;;;65.20;9.67;;;;;;;;;;5071559;28;20518;-69
2023/04/22 06:32:54;;;;;;;65.60;8.93;;;;;;;;;;5071859;28;20479;-69
2023/04/22 06:35:22;;;;;;;62.70;8.70;;;;;;;;;;5071814;28;20463;-69
2023/04/22 06:37:49;;;;;;;63.00;7.90;;;;;;;;;;5072081;28;20443;-69
2023/04/22 06:40:16;;;;;;;62.77;8.93;;;;;;;;;;5071421;28;20468;-69
2023/04/22 06:42:43;;;;;;;64.87;8.63;;;;;;;;;;5071924;28;20447;-69
2023/04/22 06:45:11;;;;;;;65.00;8.57;;;;;;;;;;5071854;28;20447;-69
2023/04/22 06:47:39;;;;;;;62.40;8.17;;;;;;;;;;5071677;28;20828;-69
2023/04/22 06:50:06;;;;;;;61.23;7.77;;;;;;;;;;5071107;28;20466;-69
2023/04/22 06:52:35;;;;;;;62.27;7.87;;;;;;;;;;5071784;28;20499;-69
2023/04/22 06:55:03;;;;;;;64.33;7.50;;;;;;;;;;5071756;28;20451;-69
2023/04/22 06:57:30;;;;;;;61.53;7.50;;;;;;;;;;5071686;28;20455;-69
2023/04/22 06:59:57;;;;;;;71.10;6.80;;;;;;;;;;5071312;28;20471;-69
2023/04/22 07:02:24;;;;;;;60.60;6.50;;;;;;;;;;5071424;28;20455;-69
2023/04/22 07:04:51;;;;;;;63.80;7.80;;;;;;;;;;5071818;28;20647;-70
2023/04/22 07:07:19;;;;;;;60.90;6.80;;;;;;;;;;5071875;28;20448;-70
2023/04/22 07:09:47;;;;;;;62.40;6.30;;;;;;;;;;5071368;28;20467;-68
2023/04/22 07:12:14;;;;;;;61.30;6.13;;;;;;;;;;5071291;28;20569;-69
2023/04/22 07:14:43;;;;;;;62.97;7.00;;;;;;;;;;5071580;28;20745;-70
2023/04/22 07:17:11;;;;;;;61.00;6.90;;;;;;;;;;5071526;28;20861;-69
2023/04/22 07:19:38;;;;;;;63.60;5.97;;;;;;;;;;5071714;28;20475;-68
2023/04/22 07:22:06;;;;;;;61.90;5.90;;;;;;;;;;5075383;28;20447;-69
2023/04/22 07:24:33;;;;;;;60.60;5.33;;;;;;;;;;5075223;28;20513;-69
2023/04/22 07:27:02;;;;;;;60.60;5.00;;;;;;;;;;5075071;28;20447;-68
2023/04/22 07:29:29;;;;;;;60.43;5.00;;;;;;;;;;5074778;28;20991;-69
2023/04/22 07:31:56;;;;;;;59.17;4.90;;;;;;;;;;5075053;28;20455;-69
2023/04/22 07:34:23;;;;;;;59.97;5.47;;;;;;;;;;5075249;28;20455;-70
2023/04/22 07:36:52;;;;;;;60.37;5.37;;;;;;;;;;5074906;28;20936;-69
2023/04/22 07:39:19;;;;;;;59.80;5.20;;;;;;;;;;5074608;28;20471;-69
2023/04/22 07:41:46;;;;;;;59.40;5.27;;;;;;;;;;5074861;28;20444;-68
2023/04/22 07:44:20;;;;;;;59.97;5.10;;;;;;;;;;5074605;28;20461;-69
2023/04/22 07:46:47;;;;;;;60.50;5.10;;;;;;;;;;5075109;28;20455;-69
2023/04/22 07:49:15;;;;;;;59.93;5.43;;;;;;;;;;5074239;28;20858;-69
2023/04/22 07:51:42;;;;;;;59.93;5.30;;;;;;;;;;5074942;28;20542;-69
2023/04/22 07:54:09;;;;;;;58.53;4.77;;;;;;;;;;5074620;28;20490;-69
2023/04/22 07:56:37;;;;;;;59.30;4.80;;;;;;;;;;5074456;28;20448;-68
2023/04/22 07:59:04;;;;;;;60.33;4.60;;;;;;;;;;5074510;28;20475;-69
2023/04/22 08:01:33;;;;;;;59.67;4.80;;;;;;;;;;5074486;28;20463;-69
2023/04/22 08:04:00;;;;;;;60.47;5.07;;;;;;;;;;5074588;28;20527;-69
2023/04/22 08:06:27;;;;;;;59.03;4.90;;;;;;;;;;5074471;28;20462;-69
2023/04/22 08:08:54;;;;;;;58.40;4.30;;;;;;;;;;5074172;28;20471;-69
2023/04/22 08:11:22;;;;;;;59.60;4.80;;;;;;;;;;5074149;28;20892;-69
2023/04/22 08:13:49;;;;;;;58.80;4.47;;;;;;;;;;5074523;28;20491;-69
2023/04/22 08:16:16;;;;;;;60.10;4.73;;;;;;;;;;5074677;28;20451;-69
2023/04/22 08:18:45;;;;;;;59.00;4.77;;;;;;;;;;5074045;28;20847;-69
2023/04/22 08:21:13;;;;;;;60.10;4.70;;;;;;;;;;5074225;28;20454;-69
2023/04/22 08:23:40;;;;;;;59.67;4.23;;;;;;;;;;5074015;28;20463;-69
2023/04/22 08:26:10;;;;;;;59.93;5.03;;;;;;;;;;5074384;28;20482;-69
2023/04/22 08:28:37;;;;;;;58.57;4.30;;;;;;;;;;5073892;28;20839;-69
2023/04/22 08:31:05;;;;;;;59.70;4.90;;;;;;;;;;5073249;28;20447;-69
2023/04/22 08:33:32;;;;;;;59.30;4.70;;;;;;;;;;5074059;28;20483;-70
2023/04/22 08:36:02;;;;;;;59.63;4.87;;;;;;;;;;5073892;28;20454;-69
2023/04/22 08:38:29;;;;;;;58.57;4.10;;;;;;;;;;5073633;28;20458;-70
2023/04/22 08:40:57;;;;;;;61.70;4.87;;;;;;;;;;5073626;28;20455;-69
2023/04/22 08:43:26;;;;;;;61.30;4.67;;;;;;;;;;5073853;28;21015;-69
2023/04/22 08:45:53;;;;;;;59.30;4.80;;;;;;;;;;5074035;28;20440;-69
2023/04/22 08:48:20;;;;;;;61.87;4.57;;;;;;;;;;5073579;28;20451;-70
2023/04/22 08:50:48;;;;;;;59.37;4.43;;;;;;;;;;5073316;28;20451;-70
2023/04/22 08:53:16;;;;;;;58.50;4.13;;;;;;;;;;5073479;28;20494;-70
2023/04/22 08:55:45;;;;;;;58.80;4.07;;;;;;;;;;5073568;28;20448;-70
2023/04/22 08:58:12;;;;;;;61.77;4.80;;;;;;;;;;5073637;28;20454;-68
2023/04/22 09:00:40;;;;;;;60.40;3.70;;;;;;;;;;5073717;28;20467;-70
2023/04/22 09:03:08;;;;;;;59.40;4.33;;;;;;;;;;5073539;28;20446;-70
2023/04/22 09:05:37;;;;;;;58.53;3.80;;;;;;;;;;5073337;28;20455;-69
2023/04/22 09:08:04;;;;;;;60.10;3.90;;;;;;;;;;5073462;28;20443;-69
2023/04/22 09:10:32;;;;;;;60.50;3.87;;;;;;;;;;5072897;28;20555;-69
2023/04/22 09:13:00;;;;;;;58.47;3.73;;;;;;;;;;5073310;28;21003;-69
2023/04/22 09:15:27;;;;;;;59.37;4.40;;;;;;;;;;5073281;28;20450;-69
2023/04/22 09:17:55;;;;;;;59.33;3.93;;;;;;;;;;5072953;28;20454;-69
2023/04/22 09:20:26;;;;;;;59.00;4.10;;;;;;;;;;5072870;28;20472;-70
2023/04/22 09:22:53;;;;;;;58.80;3.50;;;;;;;;;;5073163;28;20449;-69
2023/04/22 09:25:21;;;;;;;58.97;3.60;;;;;;;;;;5072836;28;20456;-70
2023/04/22 09:27:50;;;;;;;58.60;3.77;;;;;;;;;;5072933;28;20454;-70
2023/04/22 09:30:18;;;;;;;58.80;3.30;;;;;;;;;;5072422;28;20471;-69
2023/04/22 09:32:52;;;;;;;58.07;3.57;;;;;;;;;;5073147;28;20582;-70
2023/04/22 09:35:23;;;;;;;58.30;3.30;;;;;;;;;;5073122;28;20467;-69
2023/04/22 09:37:52;;;;;;;61.43;4.03;;;;;;;;;;5072859;28;20447;-70
2023/04/22 09:40:19;;;;;;;58.00;3.40;;;;;;;;;;5072277;28;20471;-70
2023/04/22 09:42:52;;;;;;;57.50;3.47;;;;;;;;;;5072676;28;20485;-71
2023/04/22 09:45:28;;;;;;;58.87;3.60;;;;;;;;;;5072651;28;20459;-71
2023/04/22 09:47:56;;;;;;;58.97;3.50;;;;;;;;;;5072614;28;20447;-71
2023/04/22 09:50:25;;;;;;;58.17;3.60;;;;;;;;;;5072684;28;20554;-70
2023/04/22 09:52:56;;;;;;;59.30;3.63;;;;;;;;;;5072354;28;20483;-70
2023/04/22 09:55:24;;;;;;;57.90;3.40;;;;;;;;;;5072320;28;20447;-71
2023/04/22 09:57:53;;;;;;;57.80;3.37;;;;;;;;;;5072565;28;20534;-71
2023/04/22 10:00:21;;;;;;;58.57;3.70;;;;;;;;;;5072057;28;20475;-71
2023/04/22 10:02:48;;;;;;;57.70;3.23;;;;;;;;;;5072224;28;20455;-71
2023/04/22 10:05:15;;;;;;;58.40;3.50;;;;;;;;;;5072291;28;20451;-71
2023/04/22 10:07:43;;;;;;;57.70;3.27;;;;;;;;;;5072175;28;20973;-70
2023/04/22 10:10:10;;;;;;;58.27;2.90;;;;;;;;;;5071987;28;20475;-71
2023/04/22 10:12:38;;;;;;;57.20;2.73;;;;;;;;;;5071966;28;20455;-71
2023/04/22 10:15:07;;;;;;;57.47;2.60;;;;;;;;;;5072207;28;20451;-69
2023/04/22 10:17:35;;;;;;;57.77;3.30;;;;;;;;;;5072123;28;20516;-69
2023/04/22 10:20:06;;;;;;;58.57;3.03;;;;;;;;;;5071584;28;20464;-69
2023/04/22 10:22:34;;;;;;;57.40;2.80;;;;;;;;;;5071815;28;20451;-71
2023/04/22 10:25:01;;;;;;;61.17;2.73;;;;;;;;;;5071837;28;20456;-69
2023/04/22 10:27:28;;;;;;;57.60;2.83;;;;;;;;;;5071822;28;20463;-69
2023/04/22 10:29:56;;;;;;;57.97;3.00;;;;;;;;;;5071620;28;20850;-69
2023/04/22 10:32:26;;;;;;;57.57;2.90;;;;;;;;;;5071815;28;21011;-69
2023/04/22 10:35:07;;;;;;;57.40;2.60;;;;;;;;;;5071609;28;20482;-68
2023/04/22 10:37:35;;;;;;;57.37;2.50;;;;;;;;;;5071830;28;20534;-70
2023/04/22 10:40:09;;;;;;;58.47;2.80;;;;;;;;;;5071552;28;20479;-70
2023/04/22 10:42:39;;;;;;;57.10;2.50;;;;;;;;;;5071863;28;20970;-70
2023/04/22 10:45:06;;;;;;;58.37;2.60;;;;;;;;;;5071629;28;20826;-70
2023/04/22 10:47:35;;;;;;;58.10;2.50;;;;;;;;;;5071539;28;20451;-69
2023/04/22 10:50:13;;;;;;;56.97;2.70;;;;;;;;;;5071220;28;20529;-70
2023/04/22 10:52:41;;;;;;;57.90;2.90;;;;;;;;;;5071674;28;20550;-70
2023/04/22 10:55:08;;;;;;;56.77;2.37;;;;;;;;;;5075572;28;20506;-70
2023/04/22 10:57:40;;;;;;;57.27;2.53;;;;;;;;;;5078186;28;20978;-70
2023/04/22 11:00:37;;;;;;;57.50;3.00;;;;;;;;;;5078185;28;20478;-70
2023/04/22 11:03:13;;;;;;;57.20;2.90;;;;;;;;;;5016123;28;20445;-70
2023/04/22 11:05:40;;;;;;;57.13;2.27;;;;;;;;;;5067069;28;20482;-71
2023/04/22 11:08:08;;;;;;;57.67;2.90;;;;;;;;;;5078069;28;20534;-71
2023/04/22 11:10:39;;;;;;;57.73;2.73;;;;;;;;;;5077659;28;20493;-71
2023/04/22 11:13:07;;;;;;;57.73;2.80;;;;;;;;;;5078427;28;20446;-70
2023/04/22 11:15:36;;;;;;;58.00;2.90;;;;;;;;;;5078161;28;20952;-71
2023/04/22 11:18:03;;;;;;;57.10;2.90;;;;;;;;;;5078064;28;20451;-71
2023/04/22 11:20:31;;;;;;;57.30;2.67;;;;;;;;;;5077613;28;21029;-71
2023/04/22 11:22:58;;;;;;;57.00;2.83;;;;;;;;;;5077942;28;20447;-70
2023/04/22 11:25:26;;;;;;;57.37;2.87;;;;;;;;;;5078192;28;20813;-71
2023/04/22 11:27:54;;;;;;;57.90;2.77;;;;;;;;;;5078158;28;20515;-70
2023/04/22 11:30:22;;;;;;;56.67;2.40;;;;;;;;;;5077713;28;20466;-70
2023/04/22 11:32:49;;;;;;;57.07;2.70;;;;;;;;;;5077894;28;20451;-70
2023/04/22 11:35:18;;;;;;;58.43;2.53;;;;;;;;;;5077679;28;20601;-69
2023/04/22 11:37:48;;;;;;;57.27;2.80;;;;;;;;;;5077869;28;20899;-71
2023/04/22 11:40:18;;;;;;;58.07;3.00;;;;;;;;;;5077369;28;20995;-70
2023/04/22 11:42:46;;;;;;;58.27;2.87;;;;;;;;;;5077879;28;20443;-70
2023/04/22 11:45:13;;;;;;;57.50;2.93;;;;;;;;;;5077883;28;20541;-70
2023/04/22 11:47:41;;;;;;;57.80;2.80;;;;;;;;;;5077948;28;20459;-70
2023/04/22 11:50:10;;;;;;;57.17;2.83;;;;;;;;;;5077401;28;21009;-70
2023/04/22 11:52:44;;;;;;;58.00;3.17;;;;;;;;;;5078125;28;20948;-70
2023/04/22 11:55:13;;;;;;;56.87;2.80;;;;;;;;;;5077782;28;20482;-70
2023/04/22 11:57:40;;;;;;;58.33;3.00;;;;;;;;;;5077631;28;20542;-70
2023/04/22 12:00:11;;;;;;;57.53;2.70;;;;;;;;;;5077157;28;20467;-70
2023/04/22 12:02:38;;;;;;;58.50;3.00;;;;;;;;;;5077548;28;20804;-71
2023/04/22 12:05:05;;;;;;;57.40;2.80;;;;;;;;;;5077810;28;20439;-71
2023/04/22 12:07:33;;;;;;;58.13;3.30;;;;;;;;;;5074640;28;20450;-72
2023/04/22 12:10:01;;;;;;;57.77;2.67;;;;;;;;;;5074058;28;20474;-70
2023/04/22 12:12:31;;;;;;;57.97;3.00;;;;;;;;;;5074348;28;20538;-69
2023/04/22 12:14:58;;;;;;;57.97;3.17;;;;;;;;;;5074235;28;20475;-69
2023/04/22 12:17:25;;;;;;;57.67;3.00;;;;;;;;;;5074619;28;20443;-69
2023/04/22 12:19:56;;;;;;;58.80;3.20;;;;;;;;;;5073921;28;20467;-71
2023/04/22 12:22:26;;;;;;;58.13;3.10;;;;;;;;;;5074414;28;20453;-71
2023/04/22 12:24:53;;;;;;;58.10;3.10;;;;;;;;;;5074213;28;20765;-70
2023/04/22 12:27:21;;;;;;;58.30;3.03;;;;;;;;;;5074531;28;20498;-69
2023/04/22 12:29:55;;;;;;;58.60;2.83;;;;;;;;;;5073579;28;20983;-69
2023/04/22 12:32:23;;;;;;;58.23;3.07;;;;;;;;;;5074381;28;20486;-70
2023/04/22 12:34:51;;;;;;;58.50;3.20;;;;;;;;;;5074127;28;20852;-71
2023/04/22 12:37:18;;;;;;;59.30;3.27;;;;;;;;;;5074024;28;20451;-71
2023/04/22 12:39:46;;;;;;;57.60;3.13;;;;;;;;;;5073593;28;20463;-71
2023/04/22 12:42:13;;;;;;;59.90;3.57;;;;;;;;;;5073711;28;20447;-71
2023/04/22 12:44:40;;;;;;;60.10;3.40;;;;;;;;;;5074025;28;20440;-71
2023/04/22 12:47:09;;;;;;;58.77;3.33;;;;;;;;;;5073900;28;20447;-70
2023/04/22 12:49:38;;;;;;;58.23;3.23;;;;;;;;;;5073335;28;20467;-70
2023/04/22 12:52:05;;;;;;;59.30;3.37;;;;;;;;;;5073846;28;20545;-71
2023/04/22 12:54:32;;;;;;;59.17;3.13;;;;;;;;;;5073840;28;20486;-71
2023/04/22 12:57:00;;;;;;;58.10;3.47;;;;;;;;;;5073479;28;20450;-68
2023/04/22 12:59:27;;;;;;;58.83;3.07;;;;;;;;;;5073211;28;20838;-69
2023/04/22 13:01:54;;;;;;;59.90;3.60;;;;;;;;;;5073583;28;20443;-69
2023/04/22 13:04:23;;;;;;;58.90;3.50;;;;;;;;;;5073478;28;20975;-69
2023/04/22 13:06:55;;;;;;;58.10;3.53;;;;;;;;;;5073339;28;20450;-68
2023/04/22 13:09:22;;;;;;;57.80;3.30;;;;;;;;;;5072879;28;20813;-69
2023/04/22 13:11:49;;;;;;;59.03;3.60;;;;;;;;;;5073412;28;20447;-68
2023/04/22 13:14:16;;;;;;;57.70;3.00;;;;;;;;;;5073431;28;20483;-71
2023/04/22 13:16:43;;;;;;;58.20;3.43;;;;;;;;;;5073214;28;20948;-70
2023/04/22 13:19:10;;;;;;;57.97;3.03;;;;;;;;;;5072408;28;20464;-71
2023/04/22 13:21:39;;;;;;;58.73;3.13;;;;;;;;;;5073100;28;20445;-70
2023/04/22 13:24:06;;;;;;;59.07;3.40;;;;;;;;;;5073214;28;20451;-70
2023/04/22 13:26:33;;;;;;;60.20;3.37;;;;;;;;;;5073178;28;20443;-71
2023/04/22 13:29:00;;;;;;;61.23;3.23;;;;;;;;;;5072846;28;20964;-71
2023/04/22 13:31:27;;;;;;;59.97;3.67;;;;;;;;;;5072985;28;20463;-71
2023/04/22 13:33:55;;;;;;;61.43;3.83;;;;;;;;;;5072750;28;20454;-70
2023/04/22 13:36:22;;;;;;;59.80;3.33;;;;;;;;;;5072704;28;20493;-70
2023/04/22 13:38:50;;;;;;;62.00;3.80;;;;;;;;;;5072610;28;20835;-71
2023/04/22 13:41:17;;;;;;;59.83;3.30;;;;;;;;;;5072836;28;20447;-71
2023/04/22 13:43:44;;;;;;;58.10;3.00;;;;;;;;;;5072775;28;20474;-71
2023/04/22 13:46:12;;;;;;;58.17;3.70;;;;;;;;;;5072811;28;20443;-71
2023/04/22 13:48:39;;;;;;;59.77;3.60;;;;;;;;;;5072106;28;20821;-70
2023/04/22 13:51:06;;;;;;;59.47;4.80;;;;;;;;;;5072779;28;20746;-70
2023/04/22 13:53:33;;;;;;;59.50;3.40;;;;;;;;;;5072675;28;20453;-71
2023/04/22 13:56:01;;;;;;;59.77;3.70;;;;;;;;;;5072373;28;20483;-71
2023/04/22 13:58:28;;;;;;;58.90;4.00;;;;;;;;;;5072244;28;20457;-70
2023/04/22 14:00:56;;;;;;;59.40;4.30;;;;;;;;;;5072282;28;20830;-71
2023/04/22 14:03:23;;;;;;;58.77;3.90;;;;;;;;;;5072179;28;20455;-70
2023/04/22 14:05:51;;;;;;;59.13;3.83;;;;;;;;;;5072314;28;20443;-71
2023/04/22 14:08:18;;;;;;;58.30;3.60;;;;;;;;;;5072251;28;20496;-70
2023/04/22 14:10:45;;;;;;;58.80;3.87;;;;;;;;;;5072149;28;20450;-70
2023/04/22 14:13:14;;;;;;;60.47;4.60;;;;;;;;;;5072103;28;20451;-69
2023/04/22 14:15:41;;;;;;;58.57;3.57;;;;;;;;;;5072062;28;20491;-69
2023/04/22 14:18:08;;;;;;;62.47;4.13;;;;;;;;;;5071936;28;20823;-70
2023/04/22 14:20:35;;;;;;;59.30;4.03;;;;;;;;;;5072078;28;20463;-69
2023/04/22 14:23:04;;;;;;;58.47;3.27;;;;;;;;;;5071992;28;20459;-70
2023/04/22 14:25:31;;;;;;;59.27;3.70;;;;;;;;;;5072097;28;20520;-70
2023/04/22 14:27:58;;;;;;;59.47;4.10;;;;;;;;;;5071921;28;20447;-70
2023/04/22 14:30:26;;;;;;;58.67;4.20;;;;;;;;;;5070652;28;20471;-70
2023/04/22 14:32:53;;;;;;;59.73;4.07;;;;;;;;;;5072031;28;20461;-69